sensor_id;sensor_type;location;lat;lon;timestamp;P1;durP1;ratioP1;P2;durP2;ratioP2
23624;SDS011;11989;47.872;12.014;2023-01-24T00:01:17;73.00;;;33.42;;
23624;SDS011;11989;47.872;12.014;2023-01-24T00:03:44;77.38;;;33.78;;
23624;SDS011;11989;47.872;12.014;2023-01-24T00:06:10;76.75;;;34.47;;
23624;SDS011;11989;47.872;12.014;2023-01-24T00:08:36;69.57;;;31.50;;
23624;SDS011;11989;47.872;12.014;2023-01-24T00:11:03;73.55;;;33.00;;
23624;SDS011;11989;47.872;12.014;2023-01-24T00:13:30;71.03;;;32.67;;
23624;SDS011;11989;47.872;12.014;2023-01-24T00:18:28;65.78;;;31.88;;
23624;SDS011;11989;47.872;12.014;2023-01-24T00:21:01;64.47;;;30.17;;
23624;SDS011;11989;47.872;12.014;2023-01-24T00:23:27;66.00;;;30.83;;
23624;SDS011;11989;47.872;12.014;2023-01-24T00:25:53;65.32;;;30.17;;
23624;SDS011;11989;47.872;12.014;2023-01-24T00:28:19;64.47;;;31.52;;
23624;SDS011;11989;47.872;12.014;2023-01-24T00:30:45;68.05;;;31.58;;
23624;SDS011;11989;47.872;12.014;2023-01-24T00:33:11;67.07;;;30.60;;
23624;SDS011;11989;47.872;12.014;2023-01-24T00:35:37;62.90;;;31.55;;
23624;SDS011;11989;47.872;12.014;2023-01-24T00:38:03;61.63;;;28.67;;
23624;SDS011;11989;47.872;12.014;2023-01-24T00:40:29;63.35;;;29.92;;
23624;SDS011;11989;47.872;12.014;2023-01-24T00:42:55;64.78;;;30.48;;
23624;SDS011;11989;47.872;12.014;2023-01-24T00:45:21;65.53;;;30.15;;
23624;SDS011;11989;47.872;12.014;2023-01-24T00:47:47;63.15;;;28.90;;
23624;SDS011;11989;47.872;12.014;2023-01-24T00:50:13;62.25;;;30.73;;
23624;SDS011;11989;47.872;12.014;2023-01-24T00:52:39;49.85;;;27.48;;
23624;SDS011;11989;47.872;12.014;2023-01-24T00:55:05;62.13;;;29.33;;
23624;SDS011;11989;47.872;12.014;2023-01-24T00:57:31;56.15;;;29.10;;
23624;SDS011;11989;47.872;12.014;2023-01-24T00:59:57;55.90;;;29.75;;
23624;SDS011;11989;47.872;12.014;2023-01-24T01:02:23;61.58;;;29.52;;
23624;SDS011;11989;47.872;12.014;2023-01-24T01:04:50;63.05;;;30.30;;
23624;SDS011;11989;47.872;12.014;2023-01-24T01:07:16;54.97;;;30.02;;
23624;SDS011;11989;47.872;12.014;2023-01-24T01:09:45;60.22;;;30.20;;
23624;SDS011;11989;47.872;12.014;2023-01-24T01:12:11;65.63;;;31.58;;
23624;SDS011;11989;47.872;12.014;2023-01-24T01:14:37;59.90;;;31.17;;
23624;SDS011;11989;47.872;12.014;2023-01-24T01:17:03;58.53;;;31.23;;
23624;SDS011;11989;47.872;12.014;2023-01-24T01:19:29;65.57;;;32.33;;
23624;SDS011;11989;47.872;12.014;2023-01-24T01:21:55;66.07;;;34.55;;
23624;SDS011;11989;47.872;12.014;2023-01-24T01:24:21;55.47;;;30.92;;
23624;SDS011;11989;47.872;12.014;2023-01-24T01:26:47;60.97;;;33.75;;
23624;SDS011;11989;47.872;12.014;2023-01-24T01:29:13;62.50;;;32.60;;
23624;SDS011;11989;47.872;12.014;2023-01-24T01:31:39;62.75;;;33.45;;
23624;SDS011;11989;47.872;12.014;2023-01-24T01:34:05;65.15;;;33.53;;
23624;SDS011;11989;47.872;12.014;2023-01-24T01:36:31;62.08;;;32.20;;
23624;SDS011;11989;47.872;12.014;2023-01-24T01:38:57;59.08;;;32.20;;
23624;SDS011;11989;47.872;12.014;2023-01-24T01:41:24;61.33;;;33.00;;
23624;SDS011;11989;47.872;12.014;2023-01-24T01:43:50;58.50;;;29.65;;
23624;SDS011;11989;47.872;12.014;2023-01-24T01:46:40;56.15;;;31.85;;
23624;SDS011;11989;47.872;12.014;2023-01-24T01:49:08;55.78;;;29.20;;
23624;SDS011;11989;47.872;12.014;2023-01-24T01:51:41;53.95;;;29.60;;
23624;SDS011;11989;47.872;12.014;2023-01-24T01:54:14;49.90;;;28.27;;
23624;SDS011;11989;47.872;12.014;2023-01-24T01:59:11;50.75;;;28.33;;
23624;SDS011;11989;47.872;12.014;2023-01-24T02:01:39;52.65;;;29.13;;
23624;SDS011;11989;47.872;12.014;2023-01-24T02:04:07;49.47;;;28.38;;
23624;SDS011;11989;47.872;12.014;2023-01-24T02:06:40;50.00;;;28.42;;
23624;SDS011;11989;47.872;12.014;2023-01-24T02:09:09;51.08;;;28.40;;
23624;SDS011;11989;47.872;12.014;2023-01-24T02:11:35;49.83;;;27.42;;
23624;SDS011;11989;47.872;12.014;2023-01-24T02:14:06;47.45;;;29.05;;
23624;SDS011;11989;47.872;12.014;2023-01-24T02:16:51;46.67;;;26.63;;
23624;SDS011;11989;47.872;12.014;2023-01-24T02:19:21;52.17;;;29.15;;
23624;SDS011;11989;47.872;12.014;2023-01-24T02:21:49;51.45;;;27.42;;
23624;SDS011;11989;47.872;12.014;2023-01-24T02:24:28;48.30;;;27.75;;
23624;SDS011;11989;47.872;12.014;2023-01-24T02:26:57;50.45;;;27.40;;
23624;SDS011;11989;47.872;12.014;2023-01-24T02:29:23;48.13;;;26.08;;
23624;SDS011;11989;47.872;12.014;2023-01-24T02:34:21;45.10;;;26.02;;
23624;SDS011;11989;47.872;12.014;2023-01-24T02:36:50;47.60;;;26.40;;
23624;SDS011;11989;47.872;12.014;2023-01-24T02:39:18;47.67;;;24.73;;
23624;SDS011;11989;47.872;12.014;2023-01-24T02:41:52;44.33;;;25.98;;
23624;SDS011;11989;47.872;12.014;2023-01-24T02:44:37;44.40;;;25.30;;
23624;SDS011;11989;47.872;12.014;2023-01-24T02:47:06;44.67;;;25.95;;
23624;SDS011;11989;47.872;12.014;2023-01-24T02:49:32;46.00;;;25.45;;
23624;SDS011;11989;47.872;12.014;2023-01-24T02:51:58;46.15;;;25.95;;
23624;SDS011;11989;47.872;12.014;2023-01-24T02:54:43;41.03;;;23.85;;
23624;SDS011;11989;47.872;12.014;2023-01-24T02:57:09;43.70;;;26.48;;
23624;SDS011;11989;47.872;12.014;2023-01-24T02:59:53;42.05;;;23.30;;
23624;SDS011;11989;47.872;12.014;2023-01-24T03:02:19;41.40;;;24.58;;
23624;SDS011;11989;47.872;12.014;2023-01-24T03:04:45;37.20;;;23.30;;
23624;SDS011;11989;47.872;12.014;2023-01-24T03:07:11;42.42;;;23.75;;
23624;SDS011;11989;47.872;12.014;2023-01-24T03:09:37;39.72;;;22.83;;
23624;SDS011;11989;47.872;12.014;2023-01-24T03:12:11;37.40;;;22.38;;
23624;SDS011;11989;47.872;12.014;2023-01-24T03:14:56;37.53;;;22.63;;
23624;SDS011;11989;47.872;12.014;2023-01-24T03:17:40;38.75;;;22.30;;
23624;SDS011;11989;47.872;12.014;2023-01-24T03:20:25;37.90;;;22.15;;
23624;SDS011;11989;47.872;12.014;2023-01-24T03:23:09;35.72;;;22.55;;
23624;SDS011;11989;47.872;12.014;2023-01-24T03:25:55;39.30;;;22.40;;
23624;SDS011;11989;47.872;12.014;2023-01-24T03:28:40;37.33;;;22.30;;
23624;SDS011;11989;47.872;12.014;2023-01-24T03:31:25;36.17;;;21.35;;
23624;SDS011;11989;47.872;12.014;2023-01-24T03:34:09;39.50;;;20.50;;
23624;SDS011;11989;47.872;12.014;2023-01-24T03:36:54;38.53;;;21.60;;
23624;SDS011;11989;47.872;12.014;2023-01-24T03:39:20;31.85;;;19.35;;
23624;SDS011;11989;47.872;12.014;2023-01-24T03:42:05;31.27;;;20.15;;
23624;SDS011;11989;47.872;12.014;2023-01-24T03:44:31;33.15;;;19.95;;
23624;SDS011;11989;47.872;12.014;2023-01-24T03:46:57;30.83;;;18.30;;
23624;SDS011;11989;47.872;12.014;2023-01-24T03:49:23;33.10;;;19.20;;
23624;SDS011;11989;47.872;12.014;2023-01-24T03:52:07;32.35;;;18.30;;
23624;SDS011;11989;47.872;12.014;2023-01-24T03:54:52;30.23;;;17.63;;
23624;SDS011;11989;47.872;12.014;2023-01-24T03:57:18;31.20;;;18.40;;
23624;SDS011;11989;47.872;12.014;2023-01-24T03:59:44;26.17;;;16.45;;
23624;SDS011;11989;47.872;12.014;2023-01-24T04:02:10;26.33;;;16.90;;
23624;SDS011;11989;47.872;12.014;2023-01-24T04:04:36;29.20;;;16.15;;
23624;SDS011;11989;47.872;12.014;2023-01-24T04:07:21;26.65;;;16.58;;
23624;SDS011;11989;47.872;12.014;2023-01-24T04:09:47;26.73;;;16.73;;
23624;SDS011;11989;47.872;12.014;2023-01-24T04:12:13;25.85;;;15.82;;
23624;SDS011;11989;47.872;12.014;2023-01-24T04:14:39;25.23;;;15.60;;
23624;SDS011;11989;47.872;12.014;2023-01-24T04:17:05;24.77;;;16.15;;
23624;SDS011;11989;47.872;12.014;2023-01-24T04:19:31;27.75;;;16.15;;
23624;SDS011;11989;47.872;12.014;2023-01-24T04:21:57;26.45;;;16.33;;
23624;SDS011;11989;47.872;12.014;2023-01-24T04:24:23;26.27;;;16.55;;
23624;SDS011;11989;47.872;12.014;2023-01-24T04:26:49;27.80;;;16.38;;
23624;SDS011;11989;47.872;12.014;2023-01-24T04:29:15;30.10;;;16.67;;
23624;SDS011;11989;47.872;12.014;2023-01-24T04:31:41;29.60;;;18.33;;
23624;SDS011;11989;47.872;12.014;2023-01-24T04:34:07;32.00;;;20.15;;
23624;SDS011;11989;47.872;12.014;2023-01-24T04:36:33;33.08;;;20.38;;
23624;SDS011;11989;47.872;12.014;2023-01-24T04:38:59;31.23;;;17.58;;
23624;SDS011;11989;47.872;12.014;2023-01-24T04:41:25;28.50;;;17.50;;
23624;SDS011;11989;47.872;12.014;2023-01-24T04:43:51;27.33;;;16.75;;
23624;SDS011;11989;47.872;12.014;2023-01-24T04:46:17;27.77;;;16.70;;
23624;SDS011;11989;47.872;12.014;2023-01-24T04:48:43;33.08;;;17.63;;
23624;SDS011;11989;47.872;12.014;2023-01-24T04:51:09;29.30;;;17.55;;
23624;SDS011;11989;47.872;12.014;2023-01-24T04:53:37;28.80;;;17.80;;
23624;SDS011;11989;47.872;12.014;2023-01-24T04:56:04;28.40;;;17.45;;
23624;SDS011;11989;47.872;12.014;2023-01-24T04:58:31;27.98;;;16.98;;
23624;SDS011;11989;47.872;12.014;2023-01-24T05:00:57;25.75;;;17.00;;
23624;SDS011;11989;47.872;12.014;2023-01-24T05:03:23;29.25;;;16.58;;
23624;SDS011;11989;47.872;12.014;2023-01-24T05:05:49;25.90;;;15.82;;
23624;SDS011;11989;47.872;12.014;2023-01-24T05:08:15;29.15;;;17.05;;
23624;SDS011;11989;47.872;12.014;2023-01-24T05:10:41;27.23;;;16.90;;
23624;SDS011;11989;47.872;12.014;2023-01-24T05:13:07;28.65;;;16.52;;
23624;SDS011;11989;47.872;12.014;2023-01-24T05:15:33;31.50;;;17.75;;
23624;SDS011;11989;47.872;12.014;2023-01-24T05:18:00;26.05;;;17.08;;
23624;SDS011;11989;47.872;12.014;2023-01-24T05:20:26;26.88;;;16.98;;
23624;SDS011;11989;47.872;12.014;2023-01-24T05:22:52;27.33;;;17.65;;
23624;SDS011;11989;47.872;12.014;2023-01-24T05:25:20;27.13;;;16.60;;
23624;SDS011;11989;47.872;12.014;2023-01-24T05:27:46;26.73;;;17.75;;
23624;SDS011;11989;47.872;12.014;2023-01-24T05:30:12;28.67;;;16.48;;
23624;SDS011;11989;47.872;12.014;2023-01-24T05:32:38;27.65;;;16.85;;
23624;SDS011;11989;47.872;12.014;2023-01-24T05:35:05;28.60;;;17.67;;
23624;SDS011;11989;47.872;12.014;2023-01-24T05:37:31;30.45;;;17.02;;
23624;SDS011;11989;47.872;12.014;2023-01-24T05:39:57;27.27;;;16.02;;
23624;SDS011;11989;47.872;12.014;2023-01-24T05:42:23;24.63;;;16.17;;
23624;SDS011;11989;47.872;12.014;2023-01-24T05:44:49;27.77;;;17.20;;
23624;SDS011;11989;47.872;12.014;2023-01-24T05:47:15;24.98;;;16.00;;
23624;SDS011;11989;47.872;12.014;2023-01-24T05:49:41;28.45;;;17.55;;
23624;SDS011;11989;47.872;12.014;2023-01-24T05:52:07;27.15;;;18.33;;
23624;SDS011;11989;47.872;12.014;2023-01-24T05:54:33;26.42;;;16.45;;
23624;SDS011;11989;47.872;12.014;2023-01-24T05:56:59;28.40;;;17.60;;
23624;SDS011;11989;47.872;12.014;2023-01-24T05:59:25;29.85;;;17.38;;
23624;SDS011;11989;47.872;12.014;2023-01-24T06:01:51;31.27;;;17.70;;
23624;SDS011;11989;47.872;12.014;2023-01-24T06:04:17;29.95;;;18.45;;
23624;SDS011;11989;47.872;12.014;2023-01-24T06:06:43;31.65;;;18.48;;
23624;SDS011;11989;47.872;12.014;2023-01-24T06:09:09;28.15;;;16.70;;
23624;SDS011;11989;47.872;12.014;2023-01-24T06:11:35;27.40;;;15.93;;
23624;SDS011;11989;47.872;12.014;2023-01-24T06:14:01;24.92;;;16.35;;
23624;SDS011;11989;47.872;12.014;2023-01-24T06:16:27;25.58;;;16.38;;
23624;SDS011;11989;47.872;12.014;2023-01-24T06:18:53;30.77;;;16.70;;
23624;SDS011;11989;47.872;12.014;2023-01-24T06:23:55;24.40;;;16.50;;
23624;SDS011;11989;47.872;12.014;2023-01-24T06:26:21;23.23;;;16.67;;
23624;SDS011;11989;47.872;12.014;2023-01-24T06:28:47;28.90;;;17.27;;
23624;SDS011;11989;47.872;12.014;2023-01-24T06:36:14;26.33;;;16.80;;
23624;SDS011;11989;47.872;12.014;2023-01-24T06:38:42;27.92;;;17.05;;
23624;SDS011;11989;47.872;12.014;2023-01-24T06:41:15;27.40;;;16.35;;
23624;SDS011;11989;47.872;12.014;2023-01-24T06:43:42;29.95;;;17.75;;
23624;SDS011;11989;47.872;12.014;2023-01-24T06:46:08;29.17;;;16.95;;
23624;SDS011;11989;47.872;12.014;2023-01-24T06:48:35;29.88;;;17.20;;
23624;SDS011;11989;47.872;12.014;2023-01-24T06:51:01;25.48;;;16.58;;
23624;SDS011;11989;47.872;12.014;2023-01-24T06:53:27;27.40;;;16.88;;
23624;SDS011;11989;47.872;12.014;2023-01-24T06:55:53;29.23;;;18.10;;
23624;SDS011;11989;47.872;12.014;2023-01-24T06:58:19;26.02;;;16.02;;
23624;SDS011;11989;47.872;12.014;2023-01-24T07:00:45;25.33;;;16.13;;
23624;SDS011;11989;47.872;12.014;2023-01-24T07:03:11;28.10;;;16.35;;
23624;SDS011;11989;47.872;12.014;2023-01-24T07:05:37;29.25;;;17.35;;
23624;SDS011;11989;47.872;12.014;2023-01-24T07:08:04;24.98;;;16.50;;
23624;SDS011;11989;47.872;12.014;2023-01-24T07:10:31;30.73;;;17.23;;
23624;SDS011;11989;47.872;12.014;2023-01-24T07:12:57;27.55;;;16.38;;
23624;SDS011;11989;47.872;12.014;2023-01-24T07:15:23;25.50;;;16.02;;
23624;SDS011;11989;47.872;12.014;2023-01-24T07:17:50;25.23;;;17.23;;
23624;SDS011;11989;47.872;12.014;2023-01-24T07:20:16;25.50;;;16.45;;
23624;SDS011;11989;47.872;12.014;2023-01-24T15:18:45;49.60;;;28.63;;
23624;SDS011;11989;47.872;12.014;2023-01-24T15:21:19;56.83;;;28.77;;
23624;SDS011;11989;47.872;12.014;2023-01-24T15:23:52;50.65;;;27.23;;
23624;SDS011;11989;47.872;12.014;2023-01-24T15:26:22;54.55;;;29.60;;
23624;SDS011;11989;47.872;12.014;2023-01-24T15:28:49;50.47;;;28.65;;
23624;SDS011;11989;47.872;12.014;2023-01-24T15:31:26;53.60;;;26.88;;
23624;SDS011;11989;47.872;12.014;2023-01-24T15:33:54;49.03;;;26.48;;
23624;SDS011;11989;47.872;12.014;2023-01-24T15:38:47;44.60;;;26.95;;
23624;SDS011;11989;47.872;12.014;2023-01-24T15:41:24;47.03;;;28.27;;
23624;SDS011;11989;47.872;12.014;2023-01-24T15:44:10;53.35;;;29.75;;
23624;SDS011;11989;47.872;12.014;2023-01-24T15:46:38;51.40;;;29.23;;
23624;SDS011;11989;47.872;12.014;2023-01-24T15:49:33;55.78;;;32.35;;
23624;SDS011;11989;47.872;12.014;2023-01-24T15:52:04;53.42;;;30.67;;
23624;SDS011;11989;47.872;12.014;2023-01-24T15:54:32;58.05;;;32.40;;
23624;SDS011;11989;47.872;12.014;2023-01-24T15:57:03;52.20;;;28.30;;
23624;SDS011;11989;47.872;12.014;2023-01-24T15:59:29;56.65;;;31.77;;
23624;SDS011;11989;47.872;12.014;2023-01-24T16:01:56;56.22;;;31.00;;
23624;SDS011;11989;47.872;12.014;2023-01-24T16:04:22;49.45;;;28.17;;
23624;SDS011;11989;47.872;12.014;2023-01-24T16:06:49;44.40;;;24.80;;
23624;SDS011;11989;47.872;12.014;2023-01-24T16:09:15;44.42;;;24.95;;
23624;SDS011;11989;47.872;12.014;2023-01-24T16:11:43;46.25;;;23.45;;
23624;SDS011;11989;47.872;12.014;2023-01-24T16:17:25;38.47;;;21.42;;
23624;SDS011;11989;47.872;12.014;2023-01-24T16:22:37;40.97;;;20.98;;
23624;SDS011;11989;47.872;12.014;2023-01-24T16:25:04;46.70;;;24.70;;
23624;SDS011;11989;47.872;12.014;2023-01-24T16:27:30;42.50;;;22.38;;
23624;SDS011;11989;47.872;12.014;2023-01-24T16:29:57;44.30;;;23.80;;
23624;SDS011;11989;47.872;12.014;2023-01-24T16:32:23;47.80;;;26.50;;
23624;SDS011;11989;47.872;12.014;2023-01-24T16:34:49;48.83;;;25.27;;
23624;SDS011;11989;47.872;12.014;2023-01-24T16:37:15;48.78;;;25.35;;
23624;SDS011;11989;47.872;12.014;2023-01-24T16:39:43;46.30;;;25.13;;
23624;SDS011;11989;47.872;12.014;2023-01-24T16:42:15;58.17;;;26.67;;
23624;SDS011;11989;47.872;12.014;2023-01-24T16:44:42;47.72;;;22.83;;
23624;SDS011;11989;47.872;12.014;2023-01-24T16:47:08;50.03;;;25.50;;
23624;SDS011;11989;47.872;12.014;2023-01-24T16:49:35;44.75;;;22.92;;
23624;SDS011;11989;47.872;12.014;2023-01-24T16:52:01;49.20;;;22.92;;
23624;SDS011;11989;47.872;12.014;2023-01-24T16:54:28;51.42;;;25.05;;
23624;SDS011;11989;47.872;12.014;2023-01-24T16:56:54;47.55;;;23.48;;
23624;SDS011;11989;47.872;12.014;2023-01-24T16:59:20;41.47;;;21.60;;
23624;SDS011;11989;47.872;12.014;2023-01-24T17:01:46;43.97;;;22.27;;
23624;SDS011;11989;47.872;12.014;2023-01-24T17:04:12;45.17;;;22.10;;
23624;SDS011;11989;47.872;12.014;2023-01-24T17:06:38;43.40;;;23.20;;
23624;SDS011;11989;47.872;12.014;2023-01-24T17:09:04;40.85;;;21.30;;
23624;SDS011;11989;47.872;12.014;2023-01-24T17:11:31;43.88;;;23.40;;
23624;SDS011;11989;47.872;12.014;2023-01-24T17:13:57;48.50;;;23.25;;
23624;SDS011;11989;47.872;12.014;2023-01-24T17:16:24;45.05;;;23.30;;
23624;SDS011;11989;47.872;12.014;2023-01-24T17:18:50;47.70;;;23.20;;
23624;SDS011;11989;47.872;12.014;2023-01-24T17:21:16;42.15;;;22.02;;
23624;SDS011;11989;47.872;12.014;2023-01-24T17:23:43;51.63;;;23.52;;
23624;SDS011;11989;47.872;12.014;2023-01-24T17:26:13;52.38;;;26.00;;
23624;SDS011;11989;47.872;12.014;2023-01-24T17:28:39;205.52;;;93.45;;
23624;SDS011;11989;47.872;12.014;2023-01-24T17:31:15;149.70;;;71.63;;
23624;SDS011;11989;47.872;12.014;2023-01-24T17:33:42;118.15;;;59.80;;
23624;SDS011;11989;47.872;12.014;2023-01-24T17:36:08;126.32;;;64.25;;
23624;SDS011;11989;47.872;12.014;2023-01-24T17:38:37;151.48;;;74.00;;
23624;SDS011;11989;47.872;12.014;2023-01-24T17:41:03;117.30;;;62.15;;
23624;SDS011;11989;47.872;12.014;2023-01-24T17:43:33;76.18;;;43.40;;
23624;SDS011;11989;47.872;12.014;2023-01-24T17:45:59;92.97;;;50.92;;
23624;SDS011;11989;47.872;12.014;2023-01-24T17:48:26;110.93;;;60.75;;
23624;SDS011;11989;47.872;12.014;2023-01-24T17:50:52;134.00;;;83.82;;
23624;SDS011;11989;47.872;12.014;2023-01-24T17:53:21;92.68;;;54.28;;
23624;SDS011;11989;47.872;12.014;2023-01-24T17:55:47;79.28;;;46.80;;
23624;SDS011;11989;47.872;12.014;2023-01-24T17:58:13;65.68;;;39.63;;
23624;SDS011;11989;47.872;12.014;2023-01-24T18:00:39;65.72;;;38.40;;
23624;SDS011;11989;47.872;12.014;2023-01-24T18:03:06;66.22;;;35.40;;
23624;SDS011;11989;47.872;12.014;2023-01-24T18:05:34;60.53;;;33.88;;
23624;SDS011;11989;47.872;12.014;2023-01-24T18:08:02;54.30;;;30.42;;
23624;SDS011;11989;47.872;12.014;2023-01-24T18:10:28;59.13;;;29.52;;
23624;SDS011;11989;47.872;12.014;2023-01-24T18:12:55;51.58;;;30.20;;
23624;SDS011;11989;47.872;12.014;2023-01-24T18:15:21;50.30;;;29.35;;
23624;SDS011;11989;47.872;12.014;2023-01-24T18:17:47;74.10;;;39.75;;
23624;SDS011;11989;47.872;12.014;2023-01-24T18:20:13;81.97;;;47.03;;
23624;SDS011;11989;47.872;12.014;2023-01-24T18:22:40;74.50;;;44.28;;
23624;SDS011;11989;47.872;12.014;2023-01-24T18:25:07;249.57;;;110.80;;
23624;SDS011;11989;47.872;12.014;2023-01-24T18:27:33;222.60;;;107.22;;
23624;SDS011;11989;47.872;12.014;2023-01-24T18:30:00;218.50;;;101.38;;
23624;SDS011;11989;47.872;12.014;2023-01-24T18:32:26;168.23;;;84.32;;
23624;SDS011;11989;47.872;12.014;2023-01-24T18:34:52;89.25;;;50.63;;
23624;SDS011;11989;47.872;12.014;2023-01-24T18:37:18;65.22;;;38.45;;
23624;SDS011;11989;47.872;12.014;2023-01-24T18:39:44;55.40;;;33.20;;
23624;SDS011;11989;47.872;12.014;2023-01-24T18:42:10;51.55;;;30.98;;
23624;SDS011;11989;47.872;12.014;2023-01-24T18:44:38;51.80;;;30.40;;
23624;SDS011;11989;47.872;12.014;2023-01-24T18:47:04;45.90;;;29.35;;
23624;SDS011;11989;47.872;12.014;2023-01-24T18:49:30;56.38;;;29.13;;
23624;SDS011;11989;47.872;12.014;2023-01-24T18:52:02;53.20;;;27.33;;
23624;SDS011;11989;47.872;12.014;2023-01-24T18:54:28;51.38;;;29.17;;
23624;SDS011;11989;47.872;12.014;2023-01-24T18:56:55;52.70;;;28.25;;
23624;SDS011;11989;47.872;12.014;2023-01-24T18:59:21;51.83;;;28.73;;
23624;SDS011;11989;47.872;12.014;2023-01-24T19:01:47;56.28;;;27.52;;
23624;SDS011;11989;47.872;12.014;2023-01-24T19:04:13;56.78;;;31.88;;
23624;SDS011;11989;47.872;12.014;2023-01-24T19:06:39;54.08;;;29.50;;
23624;SDS011;11989;47.872;12.014;2023-01-24T19:09:15;54.30;;;29.00;;
23624;SDS011;11989;47.872;12.014;2023-01-24T19:11:41;54.58;;;29.48;;
23624;SDS011;11989;47.872;12.014;2023-01-24T19:14:10;59.88;;;32.70;;
23624;SDS011;11989;47.872;12.014;2023-01-24T19:16:37;58.97;;;30.15;;
23624;SDS011;11989;47.872;12.014;2023-01-24T19:19:05;51.75;;;28.30;;
23624;SDS011;11989;47.872;12.014;2023-01-24T19:21:31;50.08;;;25.27;;
23624;SDS011;11989;47.872;12.014;2023-01-24T19:23:58;50.80;;;26.38;;
23624;SDS011;11989;47.872;12.014;2023-01-24T19:26:32;51.38;;;24.98;;
23624;SDS011;11989;47.872;12.014;2023-01-24T19:28:58;49.03;;;25.38;;
23624;SDS011;11989;47.872;12.014;2023-01-24T19:31:25;48.47;;;24.83;;
23624;SDS011;11989;47.872;12.014;2023-01-24T19:33:51;50.38;;;24.65;;
23624;SDS011;11989;47.872;12.014;2023-01-24T19:36:21;45.15;;;24.58;;
23624;SDS011;11989;47.872;12.014;2023-01-24T19:38:56;47.28;;;24.00;;
23624;SDS011;11989;47.872;12.014;2023-01-24T19:41:23;57.38;;;26.70;;
23624;SDS011;11989;47.872;12.014;2023-01-24T19:43:50;44.50;;;23.83;;
23624;SDS011;11989;47.872;12.014;2023-01-24T19:46:16;46.35;;;24.25;;
23624;SDS011;11989;47.872;12.014;2023-01-24T19:48:42;46.33;;;24.52;;
23624;SDS011;11989;47.872;12.014;2023-01-24T19:51:08;50.30;;;25.50;;
23624;SDS011;11989;47.872;12.014;2023-01-24T19:53:41;50.03;;;25.38;;
23624;SDS011;11989;47.872;12.014;2023-01-24T19:56:08;53.35;;;25.35;;
23624;SDS011;11989;47.872;12.014;2023-01-24T19:58:35;51.70;;;27.00;;
23624;SDS011;11989;47.872;12.014;2023-01-24T20:01:14;50.97;;;25.10;;
23624;SDS011;11989;47.872;12.014;2023-01-24T20:03:41;58.00;;;26.67;;
23624;SDS011;11989;47.872;12.014;2023-01-24T20:06:10;53.53;;;27.10;;
23624;SDS011;11989;47.872;12.014;2023-01-24T20:08:37;56.33;;;28.45;;
23624;SDS011;11989;47.872;12.014;2023-01-24T20:11:06;68.32;;;30.52;;
23624;SDS011;11989;47.872;12.014;2023-01-24T20:13:33;54.92;;;28.27;;
23624;SDS011;11989;47.872;12.014;2023-01-24T20:16:07;55.38;;;28.05;;
23624;SDS011;11989;47.872;12.014;2023-01-24T20:18:34;53.28;;;27.00;;
23624;SDS011;11989;47.872;12.014;2023-01-24T20:23:58;53.28;;;25.60;;
23624;SDS011;11989;47.872;12.014;2023-01-24T20:26:30;50.95;;;28.33;;
23624;SDS011;11989;47.872;12.014;2023-01-24T20:28:56;50.08;;;25.77;;
23624;SDS011;11989;47.872;12.014;2023-01-24T20:31:22;49.42;;;24.67;;
23624;SDS011;11989;47.872;12.014;2023-01-24T20:33:49;54.85;;;28.75;;
23624;SDS011;11989;47.872;12.014;2023-01-24T20:36:15;51.92;;;26.63;;
23624;SDS011;11989;47.872;12.014;2023-01-24T20:41:55;49.42;;;26.75;;
23624;SDS011;11989;47.872;12.014;2023-01-24T20:47:33;52.15;;;26.85;;
23624;SDS011;11989;47.872;12.014;2023-01-24T20:50:00;49.28;;;26.50;;
23624;SDS011;11989;47.872;12.014;2023-01-24T20:52:26;50.53;;;27.52;;
23624;SDS011;11989;47.872;12.014;2023-01-24T20:54:52;51.83;;;25.45;;
23624;SDS011;11989;47.872;12.014;2023-01-24T20:57:19;48.90;;;24.38;;
23624;SDS011;11989;47.872;12.014;2023-01-24T20:59:45;50.50;;;24.77;;
23624;SDS011;11989;47.872;12.014;2023-01-24T21:02:11;50.33;;;25.05;;
23624;SDS011;11989;47.872;12.014;2023-01-24T21:04:37;48.40;;;23.88;;
23624;SDS011;11989;47.872;12.014;2023-01-24T21:07:03;47.65;;;24.42;;
23624;SDS011;11989;47.872;12.014;2023-01-24T21:09:29;45.72;;;23.17;;
23624;SDS011;11989;47.872;12.014;2023-01-24T21:11:55;46.30;;;23.45;;
23624;SDS011;11989;47.872;12.014;2023-01-24T21:14:21;48.25;;;23.45;;
23624;SDS011;11989;47.872;12.014;2023-01-24T21:16:48;48.25;;;23.55;;
23624;SDS011;11989;47.872;12.014;2023-01-24T21:19:14;47.40;;;24.10;;
23624;SDS011;11989;47.872;12.014;2023-01-24T21:21:43;44.67;;;22.60;;
23624;SDS011;11989;47.872;12.014;2023-01-24T21:24:10;48.28;;;23.42;;
23624;SDS011;11989;47.872;12.014;2023-01-24T21:26:40;46.65;;;22.77;;
23624;SDS011;11989;47.872;12.014;2023-01-24T21:29:06;48.60;;;24.40;;
23624;SDS011;11989;47.872;12.014;2023-01-24T21:31:32;47.53;;;23.55;;
23624;SDS011;11989;47.872;12.014;2023-01-24T21:33:58;48.70;;;24.00;;
23624;SDS011;11989;47.872;12.014;2023-01-24T21:36:24;48.88;;;24.13;;
23624;SDS011;11989;47.872;12.014;2023-01-24T21:38:53;52.88;;;23.88;;
23624;SDS011;11989;47.872;12.014;2023-01-24T21:41:20;48.75;;;24.75;;
23624;SDS011;11989;47.872;12.014;2023-01-24T21:44:05;52.85;;;24.83;;
23624;SDS011;11989;47.872;12.014;2023-01-24T21:46:32;54.70;;;25.38;;
23624;SDS011;11989;47.872;12.014;2023-01-24T21:48:58;51.72;;;25.75;;
23624;SDS011;11989;47.872;12.014;2023-01-24T21:51:52;55.80;;;26.60;;
23624;SDS011;11989;47.872;12.014;2023-01-24T21:54:18;51.65;;;25.73;;
23624;SDS011;11989;47.872;12.014;2023-01-24T21:56:51;53.35;;;25.88;;
23624;SDS011;11989;47.872;12.014;2023-01-24T21:59:37;56.13;;;27.08;;
23624;SDS011;11989;47.872;12.014;2023-01-24T22:02:05;55.58;;;26.30;;
23624;SDS011;11989;47.872;12.014;2023-01-24T22:04:32;47.92;;;25.27;;
23624;SDS011;11989;47.872;12.014;2023-01-24T22:06:59;56.00;;;26.05;;
23624;SDS011;11989;47.872;12.014;2023-01-24T22:09:25;53.17;;;24.73;;
23624;SDS011;11989;47.872;12.014;2023-01-24T22:11:51;58.28;;;27.95;;
23624;SDS011;11989;47.872;12.014;2023-01-24T22:14:19;60.45;;;28.45;;
23624;SDS011;11989;47.872;12.014;2023-01-24T22:16:46;71.78;;;33.80;;
23624;SDS011;11989;47.872;12.014;2023-01-24T22:19:14;66.53;;;31.85;;
23624;SDS011;11989;47.872;12.014;2023-01-24T22:26:56;87.63;;;42.03;;
23624;SDS011;11989;47.872;12.014;2023-01-24T22:29:26;87.90;;;40.05;;
23624;SDS011;11989;47.872;12.014;2023-01-24T22:31:52;79.88;;;36.83;;
23624;SDS011;11989;47.872;12.014;2023-01-24T22:34:21;90.72;;;40.25;;
23624;SDS011;11989;47.872;12.014;2023-01-24T22:39:19;75.38;;;38.30;;
23624;SDS011;11989;47.872;12.014;2023-01-24T22:41:45;79.80;;;37.42;;
23624;SDS011;11989;47.872;12.014;2023-01-24T22:44:11;70.60;;;34.10;;
23624;SDS011;11989;47.872;12.014;2023-01-24T22:46:37;73.00;;;34.95;;
23624;SDS011;11989;47.872;12.014;2023-01-24T22:49:03;73.28;;;37.20;;
23624;SDS011;11989;47.872;12.014;2023-01-24T22:51:29;82.30;;;39.15;;